sensor_id;sensor_type;location;lat;lon;timestamp;P1;durP1;ratioP1;P2;durP2;ratioP2
27127;SDS011;14660;49.008;8.390;2023-02-22T00:01:33;9.60;;;6.50;;
27127;SDS011;14660;49.008;8.390;2023-02-22T00:04:04;8.50;;;6.20;;
27127;SDS011;14660;49.008;8.390;2023-02-22T00:06:31;15.13;;;7.20;;
27127;SDS011;14660;49.008;8.390;2023-02-22T00:08:57;10.88;;;6.68;;
27127;SDS011;14660;49.008;8.390;2023-02-22T00:11:25;9.68;;;5.47;;
27127;SDS011;14660;49.008;8.390;2023-02-22T00:13:52;11.40;;;6.75;;
27127;SDS011;14660;49.008;8.390;2023-02-22T00:16:23;12.57;;;6.38;;
27127;SDS011;14660;49.008;8.390;2023-02-22T00:18:50;7.88;;;5.53;;
27127;SDS011;14660;49.008;8.390;2023-02-22T00:21:18;11.07;;;6.65;;
27127;SDS011;14660;49.008;8.390;2023-02-22T00:23:45;8.77;;;5.13;;
27127;SDS011;14660;49.008;8.390;2023-02-22T00:26:15;11.40;;;5.35;;
27127;SDS011;14660;49.008;8.390;2023-02-22T00:28:49;8.57;;;5.85;;
27127;SDS011;14660;49.008;8.390;2023-02-22T00:31:19;9.20;;;5.10;;
27127;SDS011;14660;49.008;8.390;2023-02-22T00:33:46;8.98;;;5.70;;
27127;SDS011;14660;49.008;8.390;2023-02-22T00:36:13;7.05;;;5.50;;
27127;SDS011;14660;49.008;8.390;2023-02-22T00:38:40;11.07;;;6.50;;
27127;SDS011;14660;49.008;8.390;2023-02-22T00:41:07;9.15;;;5.68;;
27127;SDS011;14660;49.008;8.390;2023-02-22T00:43:36;11.52;;;6.15;;
27127;SDS011;14660;49.008;8.390;2023-02-22T00:46:04;8.27;;;5.55;;
27127;SDS011;14660;49.008;8.390;2023-02-22T00:48:31;10.95;;;6.40;;
27127;SDS011;14660;49.008;8.390;2023-02-22T00:50:58;10.25;;;6.00;;
27127;SDS011;14660;49.008;8.390;2023-02-22T00:53:27;11.18;;;6.10;;
27127;SDS011;14660;49.008;8.390;2023-02-22T00:55:53;8.57;;;5.07;;
27127;SDS011;14660;49.008;8.390;2023-02-22T00:58:21;8.70;;;6.68;;
27127;SDS011;14660;49.008;8.390;2023-02-22T01:00:47;11.02;;;5.80;;
27127;SDS011;14660;49.008;8.390;2023-02-22T01:03:15;12.48;;;6.20;;
27127;SDS011;14660;49.008;8.390;2023-02-22T01:05:44;11.85;;;6.53;;
27127;SDS011;14660;49.008;8.390;2023-02-22T01:08:12;13.48;;;6.85;;
27127;SDS011;14660;49.008;8.390;2023-02-22T01:10:41;11.60;;;6.88;;
27127;SDS011;14660;49.008;8.390;2023-02-22T01:13:08;14.35;;;6.93;;
27127;SDS011;14660;49.008;8.390;2023-02-22T01:15:37;10.73;;;6.55;;
27127;SDS011;14660;49.008;8.390;2023-02-22T01:18:06;10.00;;;5.82;;
27127;SDS011;14660;49.008;8.390;2023-02-22T01:20:37;10.40;;;5.90;;
27127;SDS011;14660;49.008;8.390;2023-02-22T01:23:04;10.30;;;6.50;;
27127;SDS011;14660;49.008;8.390;2023-02-22T01:25:33;12.48;;;7.35;;
27127;SDS011;14660;49.008;8.390;2023-02-22T01:28:01;12.32;;;6.55;;
27127;SDS011;14660;49.008;8.390;2023-02-22T01:30:30;8.07;;;5.50;;
27127;SDS011;14660;49.008;8.390;2023-02-22T01:32:59;8.50;;;5.40;;
27127;SDS011;14660;49.008;8.390;2023-02-22T01:35:33;8.32;;;5.22;;
27127;SDS011;14660;49.008;8.390;2023-02-22T01:38:03;9.80;;;5.95;;
27127;SDS011;14660;49.008;8.390;2023-02-22T01:40:35;8.52;;;4.82;;
27127;SDS011;14660;49.008;8.390;2023-02-22T01:43:40;11.93;;;5.35;;
27127;SDS011;14660;49.008;8.390;2023-02-22T01:49:03;6.75;;;4.25;;
27127;SDS011;14660;49.008;8.390;2023-02-22T01:51:50;8.77;;;4.72;;
27127;SDS011;14660;49.008;8.390;2023-02-22T01:54:26;10.13;;;5.15;;
27127;SDS011;14660;49.008;8.390;2023-02-22T02:00:08;7.65;;;4.90;;
27127;SDS011;14660;49.008;8.390;2023-02-22T02:02:58;6.60;;;4.20;;
27127;SDS011;14660;49.008;8.390;2023-02-22T02:05:33;8.32;;;5.18;;
27127;SDS011;14660;49.008;8.390;2023-02-22T02:08:15;6.60;;;4.65;;
27127;SDS011;14660;49.008;8.390;2023-02-22T02:10:52;10.38;;;5.35;;
27127;SDS011;14660;49.008;8.390;2023-02-22T02:13:20;9.75;;;5.38;;
27127;SDS011;14660;49.008;8.390;2023-02-22T02:15:47;6.68;;;5.25;;
27127;SDS011;14660;49.008;8.390;2023-02-22T02:18:14;8.73;;;5.00;;
27127;SDS011;14660;49.008;8.390;2023-02-22T02:41:48;8.73;;;5.50;;
27127;SDS011;14660;49.008;8.390;2023-02-22T02:47:27;8.05;;;6.15;;
27127;SDS011;14660;49.008;8.390;2023-02-22T02:49:57;9.05;;;5.63;;
27127;SDS011;14660;49.008;8.390;2023-02-22T02:52:42;9.57;;;5.90;;
27127;SDS011;14660;49.008;8.390;2023-02-22T02:55:11;8.95;;;4.93;;
27127;SDS011;14660;49.008;8.390;2023-02-22T02:57:43;11.68;;;6.00;;
27127;SDS011;14660;49.008;8.390;2023-02-22T03:00:10;10.48;;;6.85;;
27127;SDS011;14660;49.008;8.390;2023-02-22T03:30:32;11.68;;;6.95;;
27127;SDS011;14660;49.008;8.390;2023-02-22T03:33:08;12.05;;;7.63;;
27127;SDS011;14660;49.008;8.390;2023-02-22T03:36:01;12.75;;;6.93;;
27127;SDS011;14660;49.008;8.390;2023-02-22T03:38:32;11.35;;;6.95;;
27127;SDS011;14660;49.008;8.390;2023-02-22T03:41:05;9.90;;;6.25;;
27127;SDS011;14660;49.008;8.390;2023-02-22T03:43:38;11.85;;;7.18;;
27127;SDS011;14660;49.008;8.390;2023-02-22T03:46:08;12.90;;;7.10;;
27127;SDS011;14660;49.008;8.390;2023-02-22T03:51:40;7.80;;;5.82;;
27127;SDS011;14660;49.008;8.390;2023-02-22T03:54:07;14.48;;;6.28;;
27127;SDS011;14660;49.008;8.390;2023-02-22T03:56:47;7.53;;;5.18;;
27127;SDS011;14660;49.008;8.390;2023-02-22T03:59:28;9.68;;;6.18;;
27127;SDS011;14660;49.008;8.390;2023-02-22T04:01:55;11.15;;;5.93;;
27127;SDS011;14660;49.008;8.390;2023-02-22T04:04:25;11.25;;;6.22;;
27127;SDS011;14660;49.008;8.390;2023-02-22T04:06:53;11.43;;;5.53;;
27127;SDS011;14660;49.008;8.390;2023-02-22T04:09:20;8.68;;;6.45;;
27127;SDS011;14660;49.008;8.390;2023-02-22T04:11:45;8.55;;;5.70;;
27127;SDS011;14660;49.008;8.390;2023-02-22T04:14:14;11.10;;;7.65;;
27127;SDS011;14660;49.008;8.390;2023-02-22T04:16:41;10.68;;;7.80;;
27127;SDS011;14660;49.008;8.390;2023-02-22T04:19:08;11.38;;;7.88;;
27127;SDS011;14660;49.008;8.390;2023-02-22T04:21:35;15.82;;;8.05;;
27127;SDS011;14660;49.008;8.390;2023-02-22T04:24:02;13.73;;;7.85;;
27127;SDS011;14660;49.008;8.390;2023-02-22T04:26:29;13.38;;;8.05;;
27127;SDS011;14660;49.008;8.390;2023-02-22T04:28:56;14.07;;;7.43;;
27127;SDS011;14660;49.008;8.390;2023-02-22T04:31:23;14.77;;;9.07;;
27127;SDS011;14660;49.008;8.390;2023-02-22T04:33:50;13.27;;;8.77;;
27127;SDS011;14660;49.008;8.390;2023-02-22T04:36:18;17.95;;;9.35;;
27127;SDS011;14660;49.008;8.390;2023-02-22T04:38:47;13.52;;;9.60;;
27127;SDS011;14660;49.008;8.390;2023-02-22T04:41:12;15.75;;;9.27;;
27127;SDS011;14660;49.008;8.390;2023-02-22T04:43:40;14.35;;;8.57;;
27127;SDS011;14660;49.008;8.390;2023-02-22T04:46:09;15.32;;;9.25;;
27127;SDS011;14660;49.008;8.390;2023-02-22T04:48:36;15.82;;;8.52;;
27127;SDS011;14660;49.008;8.390;2023-02-22T04:51:03;14.05;;;9.15;;
27127;SDS011;14660;49.008;8.390;2023-02-22T04:53:31;16.20;;;9.75;;
27127;SDS011;14660;49.008;8.390;2023-02-22T04:55:59;12.90;;;8.32;;
27127;SDS011;14660;49.008;8.390;2023-02-22T04:58:26;15.27;;;8.63;;
27127;SDS011;14660;49.008;8.390;2023-02-22T05:00:53;14.13;;;9.30;;
27127;SDS011;14660;49.008;8.390;2023-02-22T05:03:21;15.38;;;9.85;;
27127;SDS011;14660;49.008;8.390;2023-02-22T05:05:47;12.60;;;9.63;;
27127;SDS011;14660;49.008;8.390;2023-02-22T05:08:14;15.77;;;9.25;;
27127;SDS011;14660;49.008;8.390;2023-02-22T05:10:41;15.85;;;7.93;;
27127;SDS011;14660;49.008;8.390;2023-02-22T05:13:09;12.98;;;8.43;;
27127;SDS011;14660;49.008;8.390;2023-02-22T05:15:35;10.55;;;9.05;;
27127;SDS011;14660;49.008;8.390;2023-02-22T05:18:02;14.07;;;8.75;;
27127;SDS011;14660;49.008;8.390;2023-02-22T05:20:31;10.65;;;6.90;;
27127;SDS011;14660;49.008;8.390;2023-02-22T05:23:00;11.80;;;7.75;;
27127;SDS011;14660;49.008;8.390;2023-02-22T05:25:28;11.68;;;7.70;;
27127;SDS011;14660;49.008;8.390;2023-02-22T05:27:59;15.05;;;8.40;;
27127;SDS011;14660;49.008;8.390;2023-02-22T05:30:30;12.07;;;7.40;;
27127;SDS011;14660;49.008;8.390;2023-02-22T05:32:59;11.48;;;7.75;;
27127;SDS011;14660;49.008;8.390;2023-02-22T05:35:26;11.60;;;7.22;;
27127;SDS011;14660;49.008;8.390;2023-02-22T05:37:56;11.88;;;6.93;;
27127;SDS011;14660;49.008;8.390;2023-02-22T05:40:27;11.80;;;7.05;;
27127;SDS011;14660;49.008;8.390;2023-02-22T05:42:55;12.90;;;7.15;;
27127;SDS011;14660;49.008;8.390;2023-02-22T05:45:23;9.43;;;6.35;;
27127;SDS011;14660;49.008;8.390;2023-02-22T05:47:52;11.32;;;6.22;;
27127;SDS011;14660;49.008;8.390;2023-02-22T05:50:20;10.63;;;6.30;;
27127;SDS011;14660;49.008;8.390;2023-02-22T05:52:48;11.18;;;7.03;;
27127;SDS011;14660;49.008;8.390;2023-02-22T05:55:16;7.70;;;6.28;;
27127;SDS011;14660;49.008;8.390;2023-02-22T05:57:45;10.68;;;6.60;;
27127;SDS011;14660;49.008;8.390;2023-02-22T06:00:17;7.05;;;5.90;;
27127;SDS011;14660;49.008;8.390;2023-02-22T06:03:03;12.50;;;6.88;;
27127;SDS011;14660;49.008;8.390;2023-02-22T06:05:33;11.05;;;6.88;;
27127;SDS011;14660;49.008;8.390;2023-02-22T06:08:02;8.85;;;5.47;;
27127;SDS011;14660;49.008;8.390;2023-02-22T06:10:31;14.15;;;6.35;;
27127;SDS011;14660;49.008;8.390;2023-02-22T06:12:57;9.57;;;6.60;;
27127;SDS011;14660;49.008;8.390;2023-02-22T06:15:26;10.93;;;5.45;;
27127;SDS011;14660;49.008;8.390;2023-02-22T06:17:54;12.82;;;6.13;;
27127;SDS011;14660;49.008;8.390;2023-02-22T06:20:23;8.70;;;5.78;;
27127;SDS011;14660;49.008;8.390;2023-02-22T06:22:51;8.48;;;6.05;;
27127;SDS011;14660;49.008;8.390;2023-02-22T06:25:22;8.15;;;5.20;;
27127;SDS011;14660;49.008;8.390;2023-02-22T06:27:50;9.93;;;6.70;;
27127;SDS011;14660;49.008;8.390;2023-02-22T06:30:17;9.77;;;5.60;;
27127;SDS011;14660;49.008;8.390;2023-02-22T06:32:45;8.85;;;5.97;;
27127;SDS011;14660;49.008;8.390;2023-02-22T06:35:13;9.30;;;5.88;;
27127;SDS011;14660;49.008;8.390;2023-02-22T06:37:43;9.95;;;6.10;;
27127;SDS011;14660;49.008;8.390;2023-02-22T06:40:11;13.32;;;6.45;;
27127;SDS011;14660;49.008;8.390;2023-02-22T06:42:39;11.45;;;6.20;;
27127;SDS011;14660;49.008;8.390;2023-02-22T06:45:07;7.90;;;5.22;;
27127;SDS011;14660;49.008;8.390;2023-02-22T06:47:38;10.35;;;6.13;;
27127;SDS011;14660;49.008;8.390;2023-02-22T06:50:09;10.37;;;5.87;;
27127;SDS011;14660;49.008;8.390;2023-02-22T06:53:01;7.32;;;4.78;;
27127;SDS011;14660;49.008;8.390;2023-02-22T06:55:33;11.45;;;6.75;;
27127;SDS011;14660;49.008;8.390;2023-02-22T06:58:01;10.32;;;6.63;;
27127;SDS011;14660;49.008;8.390;2023-02-22T07:00:30;14.90;;;7.15;;
27127;SDS011;14660;49.008;8.390;2023-02-22T07:02:57;9.00;;;6.88;;
27127;SDS011;14660;49.008;8.390;2023-02-22T07:05:25;10.90;;;7.22;;
27127;SDS011;14660;49.008;8.390;2023-02-22T07:07:53;11.80;;;6.80;;
27127;SDS011;14660;49.008;8.390;2023-02-22T07:10:26;12.38;;;7.20;;
27127;SDS011;14660;49.008;8.390;2023-02-22T07:12:54;8.90;;;6.03;;
27127;SDS011;14660;49.008;8.390;2023-02-22T07:15:23;12.10;;;7.43;;
27127;SDS011;14660;49.008;8.390;2023-02-22T07:17:51;14.20;;;6.70;;
27127;SDS011;14660;49.008;8.390;2023-02-22T07:20:17;9.02;;;6.15;;
27127;SDS011;14660;49.008;8.390;2023-02-22T07:22:44;12.90;;;6.80;;
27127;SDS011;14660;49.008;8.390;2023-02-22T07:25:12;11.05;;;6.85;;
27127;SDS011;14660;49.008;8.390;2023-02-22T07:27:39;11.15;;;5.78;;
27127;SDS011;14660;49.008;8.390;2023-02-22T07:30:18;8.80;;;6.90;;
27127;SDS011;14660;49.008;8.390;2023-02-22T07:32:58;15.50;;;8.10;;
27127;SDS011;14660;49.008;8.390;2023-02-22T07:35:29;10.93;;;6.70;;
27127;SDS011;14660;49.008;8.390;2023-02-22T07:38:15;12.32;;;7.47;;
27127;SDS011;14660;49.008;8.390;2023-02-22T07:40:44;11.43;;;7.65;;
27127;SDS011;14660;49.008;8.390;2023-02-22T07:45:58;11.82;;;7.15;;
27127;SDS011;14660;49.008;8.390;2023-02-22T07:48:29;14.40;;;8.07;;
27127;SDS011;14660;49.008;8.390;2023-02-22T07:50:59;13.25;;;8.23;;
27127;SDS011;14660;49.008;8.390;2023-02-22T07:53:30;12.55;;;8.43;;
27127;SDS011;14660;49.008;8.390;2023-02-22T07:55:59;13.55;;;7.55;;
27127;SDS011;14660;49.008;8.390;2023-02-22T07:58:27;14.35;;;8.13;;
27127;SDS011;14660;49.008;8.390;2023-02-22T08:00:55;10.50;;;8.02;;
27127;SDS011;14660;49.008;8.390;2023-02-22T08:03:23;10.88;;;7.85;;
27127;SDS011;14660;49.008;8.390;2023-02-22T08:05:52;12.02;;;8.60;;
27127;SDS011;14660;49.008;8.390;2023-02-22T08:08:29;16.08;;;8.82;;
27127;SDS011;14660;49.008;8.390;2023-02-22T08:10:56;15.55;;;8.05;;
27127;SDS011;14660;49.008;8.390;2023-02-22T08:13:22;13.02;;;8.57;;
27127;SDS011;14660;49.008;8.390;2023-02-22T08:15:51;14.77;;;8.50;;
27127;SDS011;14660;49.008;8.390;2023-02-22T08:18:19;15.35;;;10.25;;
27127;SDS011;14660;49.008;8.390;2023-02-22T08:20:47;14.80;;;8.77;;
27127;SDS011;14660;49.008;8.390;2023-02-22T08:23:17;13.45;;;8.25;;
27127;SDS011;14660;49.008;8.390;2023-02-22T08:25:46;12.25;;;8.00;;
27127;SDS011;14660;49.008;8.390;2023-02-22T08:28:14;14.82;;;9.00;;
27127;SDS011;14660;49.008;8.390;2023-02-22T08:30:43;23.40;;;8.93;;
27127;SDS011;14660;49.008;8.390;2023-02-22T08:33:11;13.93;;;8.65;;
27127;SDS011;14660;49.008;8.390;2023-02-22T08:35:41;14.95;;;8.50;;
27127;SDS011;14660;49.008;8.390;2023-02-22T08:38:14;14.00;;;9.15;;
27127;SDS011;14660;49.008;8.390;2023-02-22T08:40:55;17.08;;;8.57;;
27127;SDS011;14660;49.008;8.390;2023-02-22T08:43:23;11.57;;;8.00;;
27127;SDS011;14660;49.008;8.390;2023-02-22T08:45:51;15.20;;;8.35;;
27127;SDS011;14660;49.008;8.390;2023-02-22T08:48:18;14.52;;;8.10;;
27127;SDS011;14660;49.008;8.390;2023-02-22T08:50:45;12.65;;;8.02;;
27127;SDS011;14660;49.008;8.390;2023-02-22T08:53:13;10.10;;;8.48;;
27127;SDS011;14660;49.008;8.390;2023-02-22T08:55:41;11.85;;;8.45;;
27127;SDS011;14660;49.008;8.390;2023-02-22T08:58:08;13.05;;;8.30;;
27127;SDS011;14660;49.008;8.390;2023-02-22T09:00:36;12.07;;;7.35;;
27127;SDS011;14660;49.008;8.390;2023-02-22T09:03:06;12.23;;;8.10;;
27127;SDS011;14660;49.008;8.390;2023-02-22T09:05:38;11.48;;;7.75;;
27127;SDS011;14660;49.008;8.390;2023-02-22T09:08:06;10.13;;;6.95;;
27127;SDS011;14660;49.008;8.390;2023-02-22T09:10:34;8.55;;;6.75;;
27127;SDS011;14660;49.008;8.390;2023-02-22T09:13:02;11.20;;;7.43;;
27127;SDS011;14660;49.008;8.390;2023-02-22T09:15:29;12.57;;;6.68;;
27127;SDS011;14660;49.008;8.390;2023-02-22T09:17:56;10.27;;;7.10;;
27127;SDS011;14660;49.008;8.390;2023-02-22T09:20:24;8.10;;;6.00;;
27127;SDS011;14660;49.008;8.390;2023-02-22T09:22:50;10.10;;;6.75;;
27127;SDS011;14660;49.008;8.390;2023-02-22T09:25:19;10.70;;;7.10;;
27127;SDS011;14660;49.008;8.390;2023-02-22T09:27:50;10.15;;;6.25;;
27127;SDS011;14660;49.008;8.390;2023-02-22T09:33:04;11.57;;;7.53;;
27127;SDS011;14660;49.008;8.390;2023-02-22T09:35:37;12.00;;;7.65;;
27127;SDS011;14660;49.008;8.390;2023-02-22T09:38:19;9.82;;;6.53;;
27127;SDS011;14660;49.008;8.390;2023-02-22T09:40:51;11.25;;;6.82;;
27127;SDS011;14660;49.008;8.390;2023-02-22T09:46:39;11.20;;;6.55;;
27127;SDS011;14660;49.008;8.390;2023-02-22T09:52:17;8.48;;;6.13;;
27127;SDS011;14660;49.008;8.390;2023-02-22T09:55:01;12.48;;;7.05;;
27127;SDS011;14660;49.008;8.390;2023-02-22T09:57:54;10.35;;;6.55;;
27127;SDS011;14660;49.008;8.390;2023-02-22T10:00:29;10.65;;;6.70;;
27127;SDS011;14660;49.008;8.390;2023-02-22T10:06:01;10.90;;;6.43;;
27127;SDS011;14660;49.008;8.390;2023-02-22T10:08:37;8.57;;;6.43;;
27127;SDS011;14660;49.008;8.390;2023-02-22T10:26:27;12.57;;;7.63;;
27127;SDS011;14660;49.008;8.390;2023-02-22T10:31:58;11.68;;;7.63;;
27127;SDS011;14660;49.008;8.390;2023-02-22T10:34:32;12.77;;;7.28;;
27127;SDS011;14660;49.008;8.390;2023-02-22T10:39:52;11.20;;;7.97;;
27127;SDS011;14660;49.008;8.390;2023-02-22T10:42:37;16.80;;;9.38;;
27127;SDS011;14660;49.008;8.390;2023-02-22T10:45:13;15.75;;;8.85;;
27127;SDS011;14660;49.008;8.390;2023-02-22T10:48:03;14.10;;;8.63;;
27127;SDS011;14660;49.008;8.390;2023-02-22T10:50:37;13.90;;;8.23;;
27127;SDS011;14660;49.008;8.390;2023-02-22T10:53:06;16.23;;;9.20;;
27127;SDS011;14660;49.008;8.390;2023-02-22T10:55:35;14.77;;;8.77;;
27127;SDS011;14660;49.008;8.390;2023-02-22T10:58:23;13.80;;;9.00;;
27127;SDS011;14660;49.008;8.390;2023-02-22T11:00:50;16.90;;;8.90;;
27127;SDS011;14660;49.008;8.390;2023-02-22T11:06:12;13.25;;;9.18;;
27127;SDS011;14660;49.008;8.390;2023-02-22T11:08:44;19.00;;;10.55;;
27127;SDS011;14660;49.008;8.390;2023-02-22T11:11:25;13.68;;;9.18;;
27127;SDS011;14660;49.008;8.390;2023-02-22T11:13:55;14.90;;;9.05;;
27127;SDS011;14660;49.008;8.390;2023-02-22T11:16:30;15.50;;;8.68;;
27127;SDS011;14660;49.008;8.390;2023-02-22T11:21:58;14.43;;;9.25;;
27127;SDS011;14660;49.008;8.390;2023-02-22T11:24:57;15.15;;;8.93;;
27127;SDS011;14660;49.008;8.390;2023-02-22T11:38:37;14.77;;;9.25;;
27127;SDS011;14660;49.008;8.390;2023-02-22T11:44:10;12.88;;;9.02;;
27127;SDS011;14660;49.008;8.390;2023-02-22T11:46:57;15.07;;;8.48;;
27127;SDS011;14660;49.008;8.390;2023-02-22T11:49:36;13.63;;;8.38;;
27127;SDS011;14660;49.008;8.390;2023-02-22T12:01:15;15.30;;;7.95;;
27127;SDS011;14660;49.008;8.390;2023-02-22T12:13:29;13.27;;;8.43;;
27127;SDS011;14660;49.008;8.390;2023-02-22T12:19:37;14.38;;;8.98;;
27127;SDS011;14660;49.008;8.390;2023-02-22T12:22:16;13.70;;;8.02;;
27127;SDS011;14660;49.008;8.390;2023-02-22T12:31:12;13.82;;;9.02;;
27127;SDS011;14660;49.008;8.390;2023-02-22T12:34:45;14.85;;;8.52;;
27127;SDS011;14660;49.008;8.390;2023-02-22T12:43:38;13.02;;;8.02;;
27127;SDS011;14660;49.008;8.390;2023-02-22T13:03:46;14.32;;;9.35;;
27127;SDS011;14660;49.008;8.390;2023-02-22T13:27:18;19.38;;;10.52;;
27127;SDS011;14660;49.008;8.390;2023-02-22T13:29:53;17.10;;;9.30;;
27127;SDS011;14660;49.008;8.390;2023-02-22T13:50:40;20.40;;;9.75;;
27127;SDS011;14660;49.008;8.390;2023-02-22T13:53:51;19.15;;;8.40;;
27127;SDS011;14660;49.008;8.390;2023-02-22T13:56:21;15.40;;;9.43;;
27127;SDS011;14660;49.008;8.390;2023-02-22T13:58:54;18.42;;;9.93;;
27127;SDS011;14660;49.008;8.390;2023-02-22T14:01:43;19.25;;;10.20;;
27127;SDS011;14660;49.008;8.390;2023-02-22T14:04:45;17.17;;;9.77;;
27127;SDS011;14660;49.008;8.390;2023-02-22T14:09:54;15.50;;;8.88;;
27127;SDS011;14660;49.008;8.390;2023-02-22T14:18:00;17.70;;;9.90;;
27127;SDS011;14660;49.008;8.390;2023-02-22T14:20:36;17.08;;;9.77;;
27127;SDS011;14660;49.008;8.390;2023-02-22T14:29:14;19.65;;;10.95;;
27127;SDS011;14660;49.008;8.390;2023-02-22T14:37:26;16.67;;;11.82;;
27127;SDS011;14660;49.008;8.390;2023-02-22T14:40:17;17.88;;;9.73;;
27127;SDS011;14660;49.008;8.390;2023-02-22T14:45:48;18.88;;;10.40;;
27127;SDS011;14660;49.008;8.390;2023-02-22T14:57:11;18.67;;;10.63;;
27127;SDS011;14660;49.008;8.390;2023-02-22T14:59:58;14.43;;;9.75;;
27127;SDS011;14660;49.008;8.390;2023-02-22T15:02:47;16.40;;;11.85;;
27127;SDS011;14660;49.008;8.390;2023-02-22T15:05:18;16.33;;;10.98;;
27127;SDS011;14660;49.008;8.390;2023-02-22T15:07:53;17.23;;;10.35;;
27127;SDS011;14660;49.008;8.390;2023-02-22T15:16:03;17.75;;;9.93;;
27127;SDS011;14660;49.008;8.390;2023-02-22T15:21:24;17.60;;;9.98;;
27127;SDS011;14660;49.008;8.390;2023-02-22T15:40:46;19.85;;;12.23;;
27127;SDS011;14660;49.008;8.390;2023-02-22T15:43:22;17.10;;;11.02;;
27127;SDS011;14660;49.008;8.390;2023-02-22T15:45:50;19.63;;;10.98;;
27127;SDS011;14660;49.008;8.390;2023-02-22T15:48:17;13.65;;;8.77;;
27127;SDS011;14660;49.008;8.390;2023-02-22T15:53:44;17.02;;;9.75;;
27127;SDS011;14660;49.008;8.390;2023-02-22T15:56:23;18.67;;;10.32;;
27127;SDS011;14660;49.008;8.390;2023-02-22T15:58:59;21.20;;;10.43;;
27127;SDS011;14660;49.008;8.390;2023-02-22T16:01:55;16.98;;;9.45;;
27127;SDS011;14660;49.008;8.390;2023-02-22T16:04:23;19.77;;;10.25;;
27127;SDS011;14660;49.008;8.390;2023-02-22T16:07:05;18.30;;;10.35;;
27127;SDS011;14660;49.008;8.390;2023-02-22T16:09:50;18.42;;;9.65;;
27127;SDS011;14660;49.008;8.390;2023-02-22T16:15:12;18.75;;;10.23;;
27127;SDS011;14660;49.008;8.390;2023-02-22T16:17:41;18.25;;;10.57;;
27127;SDS011;14660;49.008;8.390;2023-02-22T16:22:57;17.88;;;10.90;;
27127;SDS011;14660;49.008;8.390;2023-02-22T16:25:30;15.75;;;9.90;;
27127;SDS011;14660;49.008;8.390;2023-02-22T16:28:02;17.92;;;11.02;;
27127;SDS011;14660;49.008;8.390;2023-02-22T16:31:00;22.73;;;12.18;;
27127;SDS011;14660;49.008;8.390;2023-02-22T16:33:28;13.82;;;10.40;;
27127;SDS011;14660;49.008;8.390;2023-02-22T16:36:04;16.42;;;9.05;;
27127;SDS011;14660;49.008;8.390;2023-02-22T16:38:33;19.45;;;11.75;;
27127;SDS011;14660;49.008;8.390;2023-02-22T16:41:03;17.17;;;10.43;;
27127;SDS011;14660;49.008;8.390;2023-02-22T16:43:31;18.50;;;10.77;;
27127;SDS011;14660;49.008;8.390;2023-02-22T16:45:59;17.27;;;10.95;;
27127;SDS011;14660;49.008;8.390;2023-02-22T16:48:29;16.02;;;9.98;;
27127;SDS011;14660;49.008;8.390;2023-02-22T16:50:59;20.73;;;13.00;;
27127;SDS011;14660;49.008;8.390;2023-02-22T16:53:33;19.13;;;10.85;;
27127;SDS011;14660;49.008;8.390;2023-02-22T16:56:04;18.85;;;11.73;;
27127;SDS011;14660;49.008;8.390;2023-02-22T16:58:34;20.60;;;12.30;;
27127;SDS011;14660;49.008;8.390;2023-02-22T17:01:05;22.08;;;13.10;;
27127;SDS011;14660;49.008;8.390;2023-02-22T17:03:32;17.13;;;10.68;;
27127;SDS011;14660;49.008;8.390;2023-02-22T17:06:16;17.13;;;10.55;;
27127;SDS011;14660;49.008;8.390;2023-02-22T17:08:43;18.17;;;10.95;;
27127;SDS011;14660;49.008;8.390;2023-02-22T17:11:10;23.05;;;12.80;;
27127;SDS011;14660;49.008;8.390;2023-02-22T17:13:39;19.92;;;12.60;;
27127;SDS011;14660;49.008;8.390;2023-02-22T17:16:07;18.75;;;12.65;;
27127;SDS011;14660;49.008;8.390;2023-02-22T17:18:39;20.48;;;12.65;;
27127;SDS011;14660;49.008;8.390;2023-02-22T17:21:08;23.58;;;12.35;;
27127;SDS011;14660;49.008;8.390;2023-02-22T17:23:36;21.67;;;14.20;;
27127;SDS011;14660;49.008;8.390;2023-02-22T17:26:03;19.17;;;12.50;;
27127;SDS011;14660;49.008;8.390;2023-02-22T17:28:30;22.52;;;14.27;;
27127;SDS011;14660;49.008;8.390;2023-02-22T17:30:58;22.95;;;13.60;;
27127;SDS011;14660;49.008;8.390;2023-02-22T17:33:27;21.85;;;13.68;;
27127;SDS011;14660;49.008;8.390;2023-02-22T17:35:57;24.65;;;14.35;;
27127;SDS011;14660;49.008;8.390;2023-02-22T17:38:24;21.80;;;14.20;;
27127;SDS011;14660;49.008;8.390;2023-02-22T17:40:54;25.15;;;15.52;;
27127;SDS011;14660;49.008;8.390;2023-02-22T17:43:23;21.17;;;13.35;;
27127;SDS011;14660;49.008;8.390;2023-02-22T17:45:52;24.20;;;15.93;;
27127;SDS011;14660;49.008;8.390;2023-02-22T17:48:20;23.30;;;15.10;;
27127;SDS011;14660;49.008;8.390;2023-02-22T17:50:47;27.55;;;16.50;;
27127;SDS011;14660;49.008;8.390;2023-02-22T17:53:13;27.15;;;15.93;;
27127;SDS011;14660;49.008;8.390;2023-02-22T17:55:44;23.55;;;16.33;;
27127;SDS011;14660;49.008;8.390;2023-02-22T17:58:11;26.70;;;16.10;;
27127;SDS011;14660;49.008;8.390;2023-02-22T18:00:50;25.42;;;17.00;;
27127;SDS011;14660;49.008;8.390;2023-02-22T18:03:25;26.90;;;15.60;;
27127;SDS011;14660;49.008;8.390;2023-02-22T18:05:53;33.97;;;17.50;;
27127;SDS011;14660;49.008;8.390;2023-02-22T18:08:24;30.75;;;17.48;;
27127;SDS011;14660;49.008;8.390;2023-02-22T18:10:52;26.92;;;16.73;;
27127;SDS011;14660;49.008;8.390;2023-02-22T18:13:24;24.73;;;16.70;;
27127;SDS011;14660;49.008;8.390;2023-02-22T18:15:55;26.08;;;16.15;;
27127;SDS011;14660;49.008;8.390;2023-02-22T18:18:25;22.67;;;15.30;;
27127;SDS011;14660;49.008;8.390;2023-02-22T18:20:52;24.52;;;16.48;;
27127;SDS011;14660;49.008;8.390;2023-02-22T18:23:24;27.75;;;16.38;;
27127;SDS011;14660;49.008;8.390;2023-02-22T18:25:53;28.55;;;16.73;;
27127;SDS011;14660;49.008;8.390;2023-02-22T18:28:21;28.33;;;17.38;;
27127;SDS011;14660;49.008;8.390;2023-02-22T18:30:49;28.35;;;16.77;;
27127;SDS011;14660;49.008;8.390;2023-02-22T18:33:16;28.33;;;18.20;;
27127;SDS011;14660;49.008;8.390;2023-02-22T18:35:46;26.33;;;16.48;;
27127;SDS011;14660;49.008;8.390;2023-02-22T18:38:18;29.05;;;18.00;;
27127;SDS011;14660;49.008;8.390;2023-02-22T18:40:48;31.45;;;17.50;;
27127;SDS011;14660;49.008;8.390;2023-02-22T18:43:23;29.15;;;18.40;;
27127;SDS011;14660;49.008;8.390;2023-02-22T18:45:49;27.90;;;17.30;;
27127;SDS011;14660;49.008;8.390;2023-02-22T18:48:15;31.63;;;17.50;;
27127;SDS011;14660;49.008;8.390;2023-02-22T18:50:43;26.27;;;18.02;;
27127;SDS011;14660;49.008;8.390;2023-02-22T18:53:10;28.73;;;18.48;;
27127;SDS011;14660;49.008;8.390;2023-02-22T18:55:39;28.02;;;16.77;;
27127;SDS011;14660;49.008;8.390;2023-02-22T18:58:08;28.95;;;17.48;;
27127;SDS011;14660;49.008;8.390;2023-02-22T19:00:36;32.17;;;21.27;;
27127;SDS011;14660;49.008;8.390;2023-02-22T19:03:03;31.67;;;19.35;;
27127;SDS011;14660;49.008;8.390;2023-02-22T19:05:30;24.60;;;17.23;;
27127;SDS011;14660;49.008;8.390;2023-02-22T19:08:09;32.15;;;19.77;;
27127;SDS011;14660;49.008;8.390;2023-02-22T19:10:36;27.30;;;18.02;;
27127;SDS011;14660;49.008;8.390;2023-02-22T19:13:04;25.70;;;17.02;;
27127;SDS011;14660;49.008;8.390;2023-02-22T19:15:36;29.05;;;18.67;;
27127;SDS011;14660;49.008;8.390;2023-02-22T19:18:02;31.35;;;19.35;;
27127;SDS011;14660;49.008;8.390;2023-02-22T19:20:29;31.40;;;18.52;;
27127;SDS011;14660;49.008;8.390;2023-02-22T19:22:58;30.67;;;18.92;;
27127;SDS011;14660;49.008;8.390;2023-02-22T19:25:26;25.35;;;17.30;;
27127;SDS011;14660;49.008;8.390;2023-02-22T19:27:53;28.15;;;17.98;;
27127;SDS011;14660;49.008;8.390;2023-02-22T19:30:23;28.95;;;17.70;;
27127;SDS011;14660;49.008;8.390;2023-02-22T19:32:50;29.10;;;18.63;;